createdAt,value
2018-04-10T00:00:11.498Z,20.20
2018-04-10T00:02:39.009Z,24.10
2018-04-10T00:05:06.780Z,24.05
2018-04-10T00:07:34.353Z,26.40
2018-04-10T00:10:01.870Z,29.63
2018-04-10T00:12:29.391Z,24.12
2018-04-10T00:14:56.959Z,26.70
2018-04-10T00:17:24.497Z,26.75
2018-04-10T00:19:52.077Z,25.62
2018-04-10T00:22:19.639Z,22.67
2018-04-10T00:24:47.933Z,24.37
2018-04-10T00:27:16.253Z,30.05
2018-04-10T00:29:43.801Z,28.40
2018-04-10T00:32:11.323Z,24.87
2018-04-10T00:34:39.656Z,21.60
2018-04-10T00:37:07.389Z,21.98
2018-04-10T00:39:34.930Z,21.95
2018-04-10T00:42:02.472Z,26.20
2018-04-10T00:44:30.034Z,33.15
2018-04-10T00:46:58.345Z,30.85
2018-04-10T00:49:25.903Z,28.15
2018-04-10T00:51:53.429Z,28.92
2018-04-10T00:54:21.747Z,25.70
2018-04-10T00:56:49.307Z,22.48
2018-04-10T00:59:16.835Z,21.77
2018-04-10T01:01:44.382Z,22.50
2018-04-10T01:04:11.894Z,21.62
2018-04-10T01:06:39.428Z,19.95
2018-04-10T01:09:06.989Z,28.30
2018-04-10T01:11:34.544Z,25.70
2018-04-10T01:14:02.128Z,25.83
2018-04-10T01:16:29.671Z,22.85
2018-04-10T01:18:57.214Z,24.05
2018-04-10T01:21:24.749Z,19.52
2018-04-10T01:23:53.069Z,25.35
2018-04-10T01:26:20.589Z,25.08
2018-04-10T01:28:48.098Z,31.08
2018-04-10T01:31:15.632Z,24.02
2018-04-10T01:33:43.140Z,24.92
2018-04-10T01:36:10.690Z,23.65
2018-04-10T01:38:38.230Z,28.52
2018-04-10T01:41:05.755Z,24.60
2018-04-10T01:43:33.276Z,22.58
2018-04-10T01:46:00.810Z,30.17
2018-04-10T01:48:28.367Z,32.53
2018-04-10T01:50:55.885Z,30.17
2018-04-10T01:53:23.397Z,25.17
2018-04-10T01:55:50.919Z,20.27
2018-04-10T01:58:18.505Z,26.37
2018-04-10T02:00:46.068Z,22.83
2018-04-10T02:03:13.598Z,28.60
2018-04-10T02:05:41.143Z,24.92
2018-04-10T02:08:08.694Z,21.95
2018-04-10T02:10:42.163Z,27.70
2018-04-10T02:13:09.657Z,21.83
2018-04-10T02:15:37.194Z,23.33
2018-04-10T02:18:05.486Z,19.08
2018-04-10T02:20:38.985Z,21.30
2018-04-10T02:23:07.289Z,24.67
2018-04-10T02:25:40.814Z,30.23
2018-04-10T02:28:08.359Z,24.60
2018-04-10T02:30:47.771Z,28.98
2018-04-10T02:33:21.135Z,24.50
2018-04-10T02:35:49.454Z,19.12
2018-04-10T02:38:22.891Z,19.05
2018-04-10T02:41:02.213Z,23.38
2018-04-10T02:43:29.763Z,19.52
2018-04-10T02:45:57.321Z,19.12
2018-04-10T02:48:24.854Z,22.65
2018-04-10T02:50:52.402Z,22.37
2018-04-10T02:53:19.923Z,25.23
2018-04-10T02:55:48.243Z,20.80
2018-04-10T02:58:15.790Z,21.08
2018-04-10T03:00:43.346Z,19.92
2018-04-10T03:03:10.898Z,22.08
2018-04-10T03:05:38.469Z,26.12
2018-04-10T03:08:05.999Z,24.37
2018-04-10T03:10:34.282Z,21.92
2018-04-10T03:13:02.599Z,35.60
2018-04-10T03:15:30.125Z,25.05
2018-04-10T03:17:57.665Z,25.85
2018-04-10T03:20:25.981Z,21.42
2018-04-10T03:22:53.506Z,23.23
2018-04-10T03:25:21.040Z,25.98
2018-04-10T03:27:48.568Z,24.23
2018-04-10T03:30:16.894Z,26.80
2018-04-10T03:32:44.443Z,21.62
2018-04-10T03:35:11.990Z,23.42
2018-04-10T03:37:39.558Z,22.37
2018-04-10T03:40:07.131Z,18.23
2018-04-10T03:42:34.650Z,20.42
2018-04-10T03:45:02.175Z,21.98
2018-04-10T03:47:29.723Z,18.05
2018-04-10T03:49:57.266Z,17.33
2018-04-10T03:52:25.539Z,18.85
2018-04-10T03:54:53.830Z,17.10
2018-04-10T03:59:55.705Z,26.45
2018-04-10T04:02:24.012Z,21.60
2018-04-10T04:04:51.576Z,21.05
2018-04-10T04:07:19.113Z,22.15
2018-04-10T04:09:46.625Z,16.00
2018-04-10T04:12:15.676Z,23.45
2018-04-10T04:14:43.243Z,22.95
2018-04-10T04:17:22.583Z,22.60
2018-04-10T04:20:01.933Z,21.55
2018-04-10T04:22:38.339Z,27.10
2018-04-10T04:25:05.860Z,25.05
2018-04-10T04:27:33.391Z,29.00
2018-04-10T04:30:00.922Z,25.98
2018-04-10T04:32:28.458Z,25.27
2018-04-10T04:34:56.779Z,28.15
2018-04-10T04:37:24.299Z,27.87
2018-04-10T04:39:51.850Z,25.85
2018-04-10T04:42:19.398Z,25.55
2018-04-10T04:44:46.914Z,21.30
2018-04-10T04:47:14.474Z,23.52
2018-04-10T04:49:42.015Z,24.98
2018-04-10T04:52:09.572Z,24.27
2018-04-10T04:54:37.118Z,26.40
2018-04-10T04:57:04.690Z,23.30
2018-04-10T04:59:32.242Z,20.85
2018-04-10T05:01:59.805Z,19.60
2018-04-10T05:04:27.353Z,22.80
2018-04-10T05:06:54.902Z,34.83
2018-04-10T05:09:23.435Z,23.50
2018-04-10T05:11:50.985Z,30.00
2018-04-10T05:14:18.538Z,27.20
2018-04-10T05:16:46.093Z,22.95
2018-04-10T05:19:13.608Z,24.27
2018-04-10T05:21:41.117Z,30.85
2018-04-10T05:24:08.662Z,25.77
2018-04-10T05:26:36.213Z,29.90
2018-04-10T05:29:03.725Z,25.83
2018-04-10T05:31:31.234Z,25.52
2018-04-10T05:33:58.766Z,27.40
2018-04-10T05:36:27.070Z,31.60
2018-04-10T05:38:54.615Z,25.58
2018-04-10T05:41:22.918Z,20.95
2018-04-10T05:43:50.452Z,23.92
2018-04-10T05:46:17.977Z,22.75
2018-04-10T05:48:47.048Z,28.58
2018-04-10T05:51:14.570Z,19.80
2018-04-10T05:53:42.081Z,28.38
2018-04-10T05:56:09.722Z,26.87
2018-04-10T05:58:37.234Z,30.55
2018-04-10T06:01:05.547Z,26.17
2018-04-10T06:03:33.058Z,25.90
2018-04-10T06:06:00.613Z,23.52
2018-04-10T06:08:28.896Z,24.83
2018-04-10T06:10:57.178Z,25.83
2018-04-10T06:13:25.460Z,27.95
2018-04-10T06:15:53.732Z,32.45
2018-04-10T06:18:22.023Z,29.20
2018-04-10T06:20:49.566Z,26.70
2018-04-10T06:23:17.110Z,30.67
2018-04-10T06:25:45.426Z,28.23
2018-04-10T06:28:12.952Z,28.80
2018-04-10T06:30:40.490Z,21.83
2018-04-10T06:33:08.009Z,30.70
2018-04-10T06:35:35.533Z,29.02
2018-04-10T06:38:03.080Z,30.27
2018-04-10T06:40:31.358Z,24.67
2018-04-10T06:42:59.680Z,29.10
2018-04-10T06:45:27.216Z,28.90
2018-04-10T06:47:54.767Z,39.05
2018-04-10T06:50:23.079Z,29.73
2018-04-10T06:52:50.633Z,31.27
2018-04-10T06:55:18.151Z,37.45
2018-04-10T06:57:47.176Z,42.47
2018-04-10T07:00:14.724Z,39.33
2018-04-10T07:02:42.278Z,28.87
2018-04-10T07:05:09.841Z,32.38
2018-04-10T07:07:37.348Z,33.00
2018-04-10T07:10:04.890Z,29.12
2018-04-10T07:12:32.425Z,32.30
2018-04-10T07:14:59.950Z,35.88
2018-04-10T07:17:27.454Z,34.97
2018-04-10T07:19:54.978Z,29.87
2018-04-10T07:22:22.495Z,31.67
2018-04-10T07:24:50.003Z,31.27
2018-04-10T07:27:17.547Z,28.00
2018-04-10T07:29:45.830Z,32.17
2018-04-10T07:32:13.365Z,29.90
2018-04-10T07:34:40.882Z,31.15
2018-04-10T07:37:08.420Z,35.25
2018-04-10T07:39:35.971Z,29.60
2018-04-10T07:42:03.532Z,28.45
2018-04-10T07:44:31.095Z,26.48
2018-04-10T07:46:58.611Z,24.73
2018-04-10T07:49:26.126Z,31.12
2018-04-10T07:51:53.688Z,24.00
2018-04-10T07:54:21.213Z,21.67
2018-04-10T07:56:48.765Z,26.83
2018-04-10T07:59:16.322Z,21.08
2018-04-10T08:01:43.870Z,32.42
2018-04-10T08:04:11.401Z,29.98
2018-04-10T08:06:38.919Z,60.05
2018-04-10T08:09:07.213Z,31.85
2018-04-10T08:11:34.767Z,22.13
2018-04-10T08:14:02.301Z,25.50
2018-04-10T08:16:29.819Z,24.35
2018-04-10T08:18:58.892Z,20.83
2018-04-10T08:21:26.439Z,27.20
2018-04-10T08:23:53.948Z,21.07
2018-04-10T08:26:22.273Z,27.00
2018-04-10T08:28:49.789Z,29.53
2018-04-10T08:31:17.299Z,27.23
2018-04-10T08:33:44.847Z,27.60
2018-04-10T08:36:12.415Z,37.60
2018-04-10T08:38:39.940Z,38.37
2018-04-10T08:41:07.485Z,42.80
2018-04-10T08:43:35.033Z,37.03
2018-04-10T08:46:03.358Z,35.07
2018-04-10T08:48:30.932Z,25.53
2018-04-10T08:50:58.466Z,31.23
2018-04-10T08:53:26.039Z,25.33
2018-04-10T08:55:53.555Z,19.00
2018-04-10T08:58:21.872Z,23.87
2018-04-10T09:00:49.419Z,19.47
2018-04-10T09:03:16.963Z,18.80
2018-04-10T09:05:44.529Z,27.40
2018-04-10T09:08:12.079Z,21.77
2018-04-10T09:10:39.613Z,21.23
2018-04-10T09:13:07.144Z,27.03
2018-04-10T09:15:34.679Z,19.00
2018-04-10T09:18:02.215Z,22.17
2018-04-10T09:20:29.734Z,27.60
2018-04-10T09:22:57.254Z,26.13
2018-04-10T09:25:24.796Z,29.97
2018-04-10T09:27:52.351Z,22.30
2018-04-10T09:30:19.900Z,26.70
2018-04-10T09:32:47.440Z,27.60
2018-04-10T09:35:15.727Z,24.33
2018-04-10T09:37:44.010Z,25.30
2018-04-10T09:40:11.560Z,27.07
2018-04-10T09:42:39.095Z,24.77
2018-04-10T09:45:06.632Z,27.70
2018-04-10T09:47:34.175Z,26.60
2018-04-10T09:50:01.705Z,30.60
2018-04-10T09:52:29.228Z,29.27
2018-04-10T09:54:56.753Z,31.40
2018-04-10T09:57:24.273Z,34.63
2018-04-10T09:59:52.558Z,37.37
2018-04-10T10:02:20.103Z,26.10
2018-04-10T10:04:47.627Z,39.10
2018-04-10T10:07:15.151Z,41.17
2018-04-10T10:09:42.703Z,25.73
2018-04-10T10:12:10.235Z,26.13
2018-04-10T10:14:38.553Z,26.40
2018-04-10T10:17:06.064Z,22.60
2018-04-10T10:19:33.578Z,23.40
2018-04-10T10:22:01.178Z,26.07
2018-04-10T10:24:28.726Z,29.70
2018-04-10T10:26:56.242Z,24.60
2018-04-10T10:29:23.766Z,21.53
2018-04-10T10:31:51.307Z,27.30
2018-04-10T10:34:19.629Z,18.83
2018-04-10T10:36:47.189Z,33.30
2018-04-10T10:39:14.744Z,21.53
2018-04-10T10:41:42.282Z,19.13
2018-04-10T10:44:09.843Z,23.97
2018-04-10T10:46:37.376Z,15.93
2018-04-10T10:49:04.906Z,20.50
2018-04-10T10:51:32.458Z,17.63
2018-04-10T10:54:00.030Z,15.03
2018-04-10T10:56:27.591Z,16.23
2018-04-10T10:58:55.158Z,16.43
2018-04-10T11:01:22.683Z,15.33
2018-04-10T11:03:50.215Z,15.50
2018-04-10T11:06:17.794Z,14.40
2018-04-10T11:08:45.369Z,10.70
2018-04-10T11:11:12.894Z,13.30
2018-04-10T11:13:40.411Z,12.50
2018-04-10T11:16:07.974Z,11.60
2018-04-10T11:18:35.520Z,11.37
2018-04-10T11:21:03.076Z,11.83
2018-04-10T11:23:30.616Z,13.03
2018-04-10T11:25:58.154Z,8.67
2018-04-10T11:28:25.697Z,8.83
2018-04-10T11:30:53.300Z,8.60
2018-04-10T11:33:20.856Z,7.50
2018-04-10T11:35:48.414Z,7.50
2018-04-10T11:38:15.951Z,8.33
2018-04-10T11:40:43.494Z,9.60
2018-04-10T11:43:11.051Z,6.63
2018-04-10T11:45:38.594Z,9.00
2018-04-10T11:48:06.143Z,6.70
2018-04-10T11:50:34.419Z,6.97
2018-04-10T11:53:02.699Z,5.73
2018-04-10T11:55:30.983Z,6.57
2018-04-10T11:57:59.298Z,8.83
2018-04-10T12:00:26.864Z,7.00
2018-04-10T12:02:54.414Z,7.07
2018-04-10T12:05:21.959Z,7.57
2018-04-10T12:07:49.475Z,7.30
2018-04-10T12:10:17.792Z,9.57
2018-04-10T12:12:45.303Z,8.50
2018-04-10T12:15:12.845Z,14.67
2018-04-10T12:17:40.403Z,8.10
2018-04-10T12:20:07.960Z,13.40
2018-04-10T12:22:35.506Z,11.93
2018-04-10T12:25:03.049Z,10.53
2018-04-10T12:27:30.824Z,9.20
2018-04-10T12:29:58.391Z,9.63
2018-04-10T12:32:25.956Z,8.63
2018-04-10T12:34:53.499Z,8.17
2018-04-10T12:37:21.014Z,7.67
2018-04-10T12:39:49.319Z,9.80
2018-04-10T12:42:16.839Z,8.63
2018-04-10T12:44:44.371Z,9.00
2018-04-10T12:47:11.894Z,9.30
2018-04-10T12:49:39.402Z,8.57
2018-04-10T12:52:06.927Z,8.47
2018-04-10T12:54:34.483Z,7.73
2018-04-10T12:57:02.030Z,8.40
2018-04-10T12:59:29.591Z,9.63
2018-04-10T13:01:57.168Z,13.33
2018-04-10T13:04:24.719Z,7.30
2018-04-10T13:06:52.258Z,7.40
2018-04-10T13:09:19.846Z,8.53
2018-04-10T13:11:47.402Z,12.13
2018-04-10T13:14:14.953Z,8.73
2018-04-10T13:16:42.490Z,8.20
2018-04-10T13:19:10.033Z,8.50
2018-04-10T13:21:37.563Z,12.80
2018-04-10T13:24:05.082Z,10.40
2018-04-10T13:26:32.592Z,9.33
2018-04-10T13:29:00.194Z,10.60
2018-04-10T13:31:27.734Z,6.53
2018-04-10T13:33:56.048Z,7.00
2018-04-10T13:36:23.586Z,10.60
2018-04-10T13:38:51.116Z,10.20
2018-04-10T13:41:19.424Z,7.57
2018-04-10T13:43:46.974Z,6.70
2018-04-10T13:46:14.496Z,6.07
2018-04-10T13:48:42.037Z,6.83
2018-04-10T13:51:09.586Z,5.37
2018-04-10T13:53:37.151Z,6.03
2018-04-10T13:56:04.664Z,6.60
2018-04-10T13:58:32.188Z,13.20
2018-04-10T14:00:59.706Z,7.30
2018-04-10T14:03:27.268Z,5.87
2018-04-10T14:05:54.787Z,5.77
2018-04-10T14:08:23.058Z,6.53
2018-04-10T14:10:51.344Z,6.30
2018-04-10T14:13:19.618Z,10.63
2018-04-10T14:15:47.909Z,6.13
2018-04-10T14:18:15.443Z,6.10
2018-04-10T14:20:42.986Z,5.90
2018-04-10T14:23:10.538Z,5.30
2018-04-10T14:25:38.116Z,11.07
2018-04-10T14:28:06.443Z,5.50
2018-04-10T14:30:34.045Z,6.03
2018-04-10T14:33:02.358Z,6.97
2018-04-10T14:35:29.869Z,4.93
2018-04-10T14:37:58.920Z,5.60
2018-04-10T14:40:26.479Z,5.87
2018-04-10T14:42:54.021Z,4.63
2018-04-10T14:45:21.551Z,4.67
2018-04-10T14:47:49.073Z,4.50
2018-04-10T14:50:16.587Z,6.00
2018-04-10T14:52:44.873Z,5.47
2018-04-10T14:55:12.395Z,6.00
2018-04-10T14:57:39.934Z,7.00
2018-04-10T15:00:07.456Z,5.70
2018-04-10T15:02:34.989Z,10.00
2018-04-10T15:05:02.515Z,5.70
2018-04-10T15:07:30.066Z,6.93
2018-04-10T15:09:57.597Z,5.90
2018-04-10T15:12:25.112Z,6.60
2018-04-10T15:14:53.436Z,5.90
2018-04-10T15:17:20.989Z,5.20
2018-04-10T15:19:48.551Z,5.63
2018-04-10T15:22:16.091Z,13.43
2018-04-10T15:24:43.630Z,4.70
2018-04-10T15:27:11.283Z,5.03
2018-04-10T15:29:39.570Z,5.83
2018-04-10T15:32:07.871Z,5.00
2018-04-10T15:34:35.424Z,5.43
2018-04-10T15:37:02.934Z,7.53
2018-04-10T15:39:30.471Z,5.73
2018-04-10T15:41:57.991Z,4.80
2018-04-10T15:44:25.553Z,4.70
2018-04-10T15:46:53.101Z,5.47
2018-04-10T15:49:20.664Z,5.30
2018-04-10T15:51:48.955Z,5.50
2018-04-10T15:54:16.510Z,6.23
2018-04-10T15:56:44.092Z,4.63
2018-04-10T15:59:11.613Z,5.17
2018-04-10T16:01:39.142Z,6.03
2018-04-10T16:04:07.495Z,5.57
2018-04-10T16:06:35.024Z,7.13
2018-04-10T16:09:02.535Z,4.70
2018-04-10T16:11:30.106Z,5.47
2018-04-10T16:13:57.664Z,5.43
2018-04-10T16:16:25.961Z,5.50
2018-04-10T16:18:54.241Z,5.23
2018-04-10T16:21:22.563Z,5.27
2018-04-10T16:23:50.188Z,5.17
2018-04-10T16:26:17.734Z,5.67
2018-04-10T16:28:45.296Z,5.10
2018-04-10T16:31:12.847Z,6.13
2018-04-10T16:33:40.389Z,5.33
2018-04-10T16:36:07.910Z,5.30
2018-04-10T16:38:35.426Z,4.77
2018-04-10T16:41:02.958Z,4.10
2018-04-10T16:43:30.502Z,5.33
2018-04-10T16:45:58.098Z,9.20
2018-04-10T16:48:26.411Z,4.80
2018-04-10T16:50:53.960Z,3.70
2018-04-10T16:53:21.499Z,3.83
2018-04-10T16:55:49.887Z,6.50
2018-04-10T16:58:17.422Z,3.40
2018-04-10T17:00:45.748Z,3.77
2018-04-10T17:03:13.292Z,3.47
2018-04-10T17:05:40.813Z,3.30
2018-04-10T17:08:09.133Z,3.37
2018-04-10T17:10:36.663Z,3.80
2018-04-10T17:13:04.191Z,3.10
2018-04-10T17:15:31.706Z,8.07
2018-04-10T17:17:59.223Z,4.60
2018-04-10T17:20:26.734Z,5.80
2018-04-10T17:22:54.287Z,10.67
2018-04-10T17:25:21.813Z,3.77
2018-04-10T17:27:49.405Z,7.80
2018-04-10T17:30:16.942Z,5.77
2018-04-10T17:32:44.462Z,5.23
2018-04-10T17:35:12.003Z,4.37
2018-04-10T17:37:39.580Z,4.13
2018-04-10T17:40:07.101Z,4.20
2018-04-10T17:42:34.618Z,10.83
2018-04-10T17:45:02.148Z,6.00
2018-04-10T17:47:29.709Z,10.30
2018-04-10T17:49:57.239Z,11.70
2018-04-10T17:52:24.772Z,5.43
2018-04-10T17:54:52.315Z,5.90
2018-04-10T17:57:20.642Z,5.70
2018-04-10T17:59:48.196Z,7.03
2018-04-10T18:02:15.762Z,5.03
2018-04-10T18:04:43.313Z,3.50
2018-04-10T18:07:10.874Z,4.63
2018-04-10T18:09:38.408Z,5.87
2018-04-10T18:12:05.943Z,6.28
2018-04-10T18:14:33.548Z,5.87
2018-04-10T18:17:01.104Z,4.55
2018-04-10T18:19:28.619Z,6.30
2018-04-10T18:21:56.227Z,3.47
2018-04-10T18:24:23.791Z,3.60
2018-04-10T18:26:51.333Z,3.47
2018-04-10T18:29:18.875Z,6.57
2018-04-10T18:31:47.208Z,3.90
2018-04-10T18:34:14.780Z,2.80
2018-04-10T18:36:43.169Z,2.75
2018-04-10T18:39:10.763Z,4.12
2018-04-10T18:41:38.367Z,3.17
2018-04-10T18:44:05.909Z,2.70
2018-04-10T18:46:33.486Z,2.90
2018-04-10T18:49:01.036Z,3.00
2018-04-10T18:51:28.604Z,2.55
2018-04-10T18:53:56.139Z,3.50
2018-04-10T18:56:23.746Z,2.28
2018-04-10T18:58:51.295Z,3.85
2018-04-10T19:01:18.828Z,3.87
2018-04-10T19:03:46.394Z,3.65
2018-04-10T19:06:13.958Z,2.85
2018-04-10T19:08:42.292Z,2.20
2018-04-10T19:11:09.824Z,2.03
2018-04-10T19:13:37.384Z,3.15
2018-04-10T19:16:04.945Z,1.40
2018-04-10T19:18:32.513Z,4.93
2018-04-10T19:21:00.085Z,2.03
2018-04-10T19:23:27.644Z,1.40
2018-04-10T19:25:55.223Z,1.33
2018-04-10T19:28:22.751Z,1.98
2018-04-10T19:30:50.294Z,1.58
2018-04-10T19:33:17.882Z,1.75
2018-04-10T19:35:45.431Z,1.42
2018-04-10T19:38:12.982Z,2.35
2018-04-10T19:40:40.526Z,1.37
2018-04-10T19:43:09.897Z,1.50
2018-04-10T19:45:37.440Z,2.25
2018-04-10T19:48:05.032Z,3.35
2018-04-10T19:50:33.381Z,2.20
2018-04-10T19:53:01.014Z,3.50
2018-04-10T19:55:28.604Z,1.75
2018-04-10T19:57:56.168Z,1.60
2018-04-10T20:00:24.496Z,1.60
2018-04-10T20:02:52.058Z,1.70
2018-04-10T20:05:19.580Z,3.92
2018-04-10T20:07:47.100Z,3.22
2018-04-10T20:10:14.657Z,2.55
2018-04-10T20:12:42.183Z,1.62
2018-04-10T20:15:09.706Z,1.60
2018-04-10T20:17:37.278Z,1.60
2018-04-10T20:20:04.850Z,1.95
2018-04-10T20:22:32.384Z,1.48
2018-04-10T20:25:00.685Z,1.55
2018-04-10T20:27:28.222Z,1.70
2018-04-10T20:29:55.752Z,2.12
2018-04-10T20:32:23.297Z,3.03
2018-04-10T20:34:50.815Z,6.37
2018-04-10T20:37:19.127Z,2.28
2018-04-10T20:39:46.650Z,3.28
2018-04-10T20:42:14.933Z,2.20
2018-04-10T20:44:42.489Z,2.28
2018-04-10T20:47:10.766Z,2.58
2018-04-10T20:49:39.045Z,3.00
2018-04-10T20:52:06.592Z,3.40
2018-04-10T20:54:34.112Z,4.00
2018-04-10T20:57:01.628Z,5.22
2018-04-10T20:59:29.164Z,3.08
2018-04-10T21:01:56.687Z,8.90
2018-04-10T21:04:24.240Z,5.22
2018-04-10T21:06:51.800Z,2.20
2018-04-10T21:09:19.387Z,3.55
2018-04-10T21:11:46.943Z,2.22
2018-04-10T21:14:15.270Z,2.90
2018-04-10T21:16:42.784Z,4.47
2018-04-10T21:19:10.332Z,5.35
2018-04-10T21:21:37.843Z,4.20
2018-04-10T21:24:05.351Z,8.13
2018-04-10T21:26:32.897Z,3.12
2018-04-10T21:29:00.433Z,5.18
2018-04-10T21:31:27.961Z,5.45
2018-04-10T21:33:55.486Z,5.85
2018-04-10T21:36:23.071Z,5.22
2018-04-10T21:38:51.417Z,7.75
2018-04-10T21:41:18.980Z,6.53
2018-04-10T21:43:46.577Z,10.55
2018-04-10T21:46:14.100Z,4.00
2018-04-10T21:48:41.612Z,5.30
2018-04-10T21:51:09.152Z,4.72
2018-04-10T21:53:36.654Z,5.10
2018-04-10T21:56:04.220Z,4.78
2018-04-10T21:58:31.768Z,4.43
2018-04-10T22:00:59.320Z,5.87
2018-04-10T22:03:26.832Z,4.47
2018-04-10T22:05:55.140Z,6.55
2018-04-10T22:08:22.658Z,3.70
2018-04-10T22:10:50.262Z,3.60
2018-04-10T22:13:17.806Z,6.30
2018-04-10T22:15:45.344Z,4.57
2018-04-10T22:18:12.890Z,6.57
2018-04-10T22:20:40.447Z,5.32
2018-04-10T22:23:08.769Z,5.35
2018-04-10T22:25:36.288Z,4.07
2018-04-10T22:28:03.831Z,4.70
2018-04-10T22:30:31.370Z,5.15
2018-04-10T22:32:58.887Z,4.68
2018-04-10T22:35:26.395Z,7.30
2018-04-10T22:37:54.672Z,6.68
2018-04-10T22:40:22.995Z,7.80
2018-04-10T22:42:50.539Z,6.78
2018-04-10T22:45:18.079Z,6.43
2018-04-10T22:47:45.623Z,7.55
2018-04-10T22:50:13.155Z,6.20
2018-04-10T22:52:40.708Z,11.88
2018-04-10T22:55:08.213Z,13.43
2018-04-10T22:57:35.753Z,6.45
2018-04-10T23:00:04.036Z,7.95
2018-04-10T23:02:32.361Z,7.87
2018-04-10T23:04:59.878Z,11.63
2018-04-10T23:07:27.395Z,13.10
2018-04-10T23:09:54.891Z,9.40
2018-04-10T23:12:23.167Z,13.68
2018-04-10T23:14:51.483Z,10.10
2018-04-10T23:17:18.993Z,9.27
2018-04-10T23:19:46.509Z,14.80
2018-04-10T23:22:14.058Z,9.57
2018-04-10T23:24:41.633Z,19.95
2018-04-10T23:27:09.161Z,14.70
2018-04-10T23:29:36.703Z,10.60
2018-04-10T23:32:04.256Z,8.48
2018-04-10T23:34:31.807Z,8.95
2018-04-10T23:36:59.350Z,8.00
2018-04-10T23:39:26.874Z,9.13
2018-04-10T23:41:54.395Z,11.12
2018-04-10T23:44:21.939Z,10.68
2018-04-10T23:46:49.469Z,15.48
2018-04-10T23:49:17.011Z,18.20
2018-04-10T23:51:44.577Z,17.90
2018-04-10T23:54:12.122Z,11.95
2018-04-10T23:56:39.661Z,13.25
2018-04-10T23:59:07.181Z,12.60
